jav-fan.com alexa rank chart, jav-fan.com alexa rank daily changes

jav-fan.com alexa rank chart, jav-fan.com alexa rank daily changes

jav-fan.com
Actual rank:
193 442

RANK HISTORY

Date Rank Diff
2017/05/21 193 442 -1 773
2017/05/20 195 215 +3 858
2017/05/19 191 357 -4 576
2017/05/18 195 933 +16 240
2017/05/17 179 693 +5 963
2017/05/16 173 730 +3 820
2017/05/15 169 910 -1 171
2017/05/14 171 081 +4 864
2017/05/13 166 217 +4 533
2017/05/12 161 684 -3 275
2017/05/11 164 959 +831
2017/05/10 164 128 +235
2017/05/09 163 893 -1 771
2017/05/08 165 664 -5 735
2017/05/07 171 399 -1 536
2017/05/06 172 935 +5 939
2017/05/05 166 996 +1 900
2017/05/04 165 096 +84
2017/05/03 165 012 -5 378
2017/05/02 170 390 -7 745
2017/05/01 178 135 -30 457
2017/04/30 208 592 +6 157
2017/04/29 202 435 -1 880
2017/04/28 204 315 +4 674
2017/04/27 199 641 -5 460
2017/04/26 205 101 +1 608
2017/04/25 203 493 -10 336
2017/04/24 213 829 -37 291
2017/04/23 251 120 +4 502
2017/04/22 246 618 +1 016
2017/04/21 245 602 +9 622
2017/04/20 235 980 +7 085
2017/04/19 228 895 +13 152
2017/04/18 215 743 -7 154
2017/04/17 222 897 -6 177
2017/04/16 229 074 +4 621
2017/04/15 224 453 +10 887
2017/04/14 213 566 +6 016
2017/04/13 207 550 -6 695
2017/04/12 214 245 +7 388
2017/04/11 206 857 -572
2017/04/10 207 429 +9 294
2017/04/09 198 135 +1 204
2017/04/08 196 931 +13 719
2017/04/07 183 212 +10 516
2017/04/06 172 696 -2 249
2017/04/05 174 945 +12 831
2017/04/04 162 114 +6 690
2017/04/03 155 424 +547
2017/04/02 154 877 +2 864
2017/04/01 152 013 +3 785
2017/03/31 148 228 -727
2017/03/30 148 955 +1 052
2017/03/29 147 903 +5 643
2017/03/28 142 260 -5 328
2017/03/27 147 588 +361
2017/03/26 147 227 +3 532
2017/03/25 143 695 +2 840
2017/03/24 140 855 +2 578
2017/03/23 138 277 -3 039
2017/03/22 141 316

WIDGET FOR YOUR SITE

DOMAINS WITH THE NEAREST RANK

Domain Rank
glenmarkpharma.com 193 437
policija.hr 193 438
welcomes2bananas.xyz 193 439
woningnet.nl 193 440
supercleansystem.com 193 441
jav-fan.com 193 442
okcps.org 193 443
epb.com 193 444
kameya.jp 193 445
webtooninsight.co.kr 193 446
arduino-diy.com 193 447

DOMAINS WITH THE NEAREST RANK BY TLD .com

Domain Rank
iriworldwide.com 193 431
currentcatalog.com 193 435
fm-space.com 193 436
glenmarkpharma.com 193 437
supercleansystem.com 193 441
jav-fan.com 193 442
epb.com 193 444
arduino-diy.com 193 447
taiwanfxc.com 193 449
daily-journal.com 193 451
railwaygazette.com 193 452